sensor_id;sensor_type;location;lat;lon;timestamp;P1;durP1;ratioP1;P2;durP2;ratioP2
3979;SDS011;2004;52.452;13.120;2023-05-07T00:03:32;25.10;;;11.63;;
3979;SDS011;2004;52.452;13.120;2023-05-07T00:11:23;19.40;;;12.27;;
3979;SDS011;2004;52.452;13.120;2023-05-07T00:19:13;16.30;;;11.70;;
3979;SDS011;2004;52.452;13.120;2023-05-07T00:27:05;13.97;;;10.73;;
3979;SDS011;2004;52.452;13.120;2023-05-07T00:34:56;16.50;;;12.87;;
3979;SDS011;2004;52.452;13.120;2023-05-07T00:42:46;16.33;;;11.23;;
3979;SDS011;2004;52.452;13.120;2023-05-07T00:50:38;15.10;;;11.77;;
3979;SDS011;2004;52.452;13.120;2023-05-07T00:58:29;11.50;;;8.13;;
3979;SDS011;2004;52.452;13.120;2023-05-07T01:06:20;14.90;;;9.77;;
3979;SDS011;2004;52.452;13.120;2023-05-07T01:14:17;14.37;;;11.00;;
3979;SDS011;2004;52.452;13.120;2023-05-07T01:22:09;13.80;;;10.77;;
3979;SDS011;2004;52.452;13.120;2023-05-07T01:30:01;15.13;;;9.00;;
3979;SDS011;2004;52.452;13.120;2023-05-07T01:37:51;12.77;;;8.77;;
3979;SDS011;2004;52.452;13.120;2023-05-07T01:45:43;13.60;;;8.40;;
3979;SDS011;2004;52.452;13.120;2023-05-07T01:53:36;8.70;;;6.53;;
3979;SDS011;2004;52.452;13.120;2023-05-07T02:01:27;11.10;;;8.07;;
3979;SDS011;2004;52.452;13.120;2023-05-07T02:09:18;9.47;;;7.83;;
3979;SDS011;2004;52.452;13.120;2023-05-07T02:17:09;9.53;;;7.80;;
3979;SDS011;2004;52.452;13.120;2023-05-07T02:24:59;11.10;;;8.27;;
3979;SDS011;2004;52.452;13.120;2023-05-07T02:32:50;12.43;;;9.33;;
3979;SDS011;2004;52.452;13.120;2023-05-07T02:40:40;13.70;;;9.40;;
3979;SDS011;2004;52.452;13.120;2023-05-07T02:48:31;14.13;;;9.50;;
3979;SDS011;2004;52.452;13.120;2023-05-07T02:56:22;13.43;;;9.00;;
3979;SDS011;2004;52.452;13.120;2023-05-07T03:04:12;17.67;;;10.07;;
3979;SDS011;2004;52.452;13.120;2023-05-07T03:12:03;11.50;;;9.47;;
3979;SDS011;2004;52.452;13.120;2023-05-07T03:19:54;14.13;;;9.83;;
3979;SDS011;2004;52.452;13.120;2023-05-07T03:27:44;13.60;;;9.13;;
3979;SDS011;2004;52.452;13.120;2023-05-07T03:35:35;14.57;;;9.00;;
3979;SDS011;2004;52.452;13.120;2023-05-07T03:43:25;17.70;;;10.77;;
3979;SDS011;2004;52.452;13.120;2023-05-07T03:51:16;11.70;;;9.60;;
3979;SDS011;2004;52.452;13.120;2023-05-07T03:59:07;12.33;;;9.33;;
3979;SDS011;2004;52.452;13.120;2023-05-07T04:06:58;13.83;;;10.03;;
3979;SDS011;2004;52.452;13.120;2023-05-07T04:14:49;11.87;;;9.13;;
3979;SDS011;2004;52.452;13.120;2023-05-07T04:22:40;13.27;;;8.70;;
3979;SDS011;2004;52.452;13.120;2023-05-07T04:30:32;13.37;;;9.03;;
3979;SDS011;2004;52.452;13.120;2023-05-07T04:38:25;12.53;;;9.07;;
3979;SDS011;2004;52.452;13.120;2023-05-07T04:46:16;11.10;;;9.87;;
3979;SDS011;2004;52.452;13.120;2023-05-07T04:54:06;14.27;;;11.67;;
3979;SDS011;2004;52.452;13.120;2023-05-07T05:01:57;14.07;;;10.00;;
3979;SDS011;2004;52.452;13.120;2023-05-07T05:09:47;14.53;;;9.53;;
3979;SDS011;2004;52.452;13.120;2023-05-07T05:17:38;13.47;;;9.10;;
3979;SDS011;2004;52.452;13.120;2023-05-07T05:25:29;10.60;;;7.27;;
3979;SDS011;2004;52.452;13.120;2023-05-07T05:33:19;9.83;;;7.67;;
3979;SDS011;2004;52.452;13.120;2023-05-07T05:41:10;9.70;;;7.40;;
3979;SDS011;2004;52.452;13.120;2023-05-07T05:49:00;9.37;;;7.27;;
3979;SDS011;2004;52.452;13.120;2023-05-07T05:56:51;8.50;;;6.67;;
3979;SDS011;2004;52.452;13.120;2023-05-07T06:04:42;7.77;;;6.30;;
3979;SDS011;2004;52.452;13.120;2023-05-07T06:12:32;12.43;;;7.17;;
3979;SDS011;2004;52.452;13.120;2023-05-07T06:20:23;7.80;;;6.50;;
3979;SDS011;2004;52.452;13.120;2023-05-07T06:28:13;6.00;;;5.43;;
3979;SDS011;2004;52.452;13.120;2023-05-07T06:36:04;6.57;;;5.27;;
3979;SDS011;2004;52.452;13.120;2023-05-07T06:43:55;7.00;;;4.37;;
3979;SDS011;2004;52.452;13.120;2023-05-07T06:51:48;6.67;;;4.90;;
3979;SDS011;2004;52.452;13.120;2023-05-07T06:59:38;8.30;;;6.07;;
3979;SDS011;2004;52.452;13.120;2023-05-07T07:07:29;7.93;;;4.90;;
3979;SDS011;2004;52.452;13.120;2023-05-07T07:15:20;5.57;;;4.57;;
3979;SDS011;2004;52.452;13.120;2023-05-07T07:23:11;6.00;;;5.37;;
3979;SDS011;2004;52.452;13.120;2023-05-07T07:31:01;5.10;;;4.57;;
3979;SDS011;2004;52.452;13.120;2023-05-07T07:38:52;4.93;;;4.53;;
3979;SDS011;2004;52.452;13.120;2023-05-07T07:46:43;7.67;;;6.13;;
3979;SDS011;2004;52.452;13.120;2023-05-07T07:54:35;6.73;;;5.03;;
3979;SDS011;2004;52.452;13.120;2023-05-07T08:02:25;5.57;;;4.77;;
3979;SDS011;2004;52.452;13.120;2023-05-07T08:10:16;5.17;;;4.67;;
3979;SDS011;2004;52.452;13.120;2023-05-07T08:18:11;5.40;;;4.40;;
3979;SDS011;2004;52.452;13.120;2023-05-07T08:26:01;6.77;;;4.00;;
3979;SDS011;2004;52.452;13.120;2023-05-07T08:33:52;5.67;;;4.43;;
3979;SDS011;2004;52.452;13.120;2023-05-07T08:41:45;8.07;;;4.40;;
3979;SDS011;2004;52.452;13.120;2023-05-07T08:49:38;3.97;;;3.60;;
3979;SDS011;2004;52.452;13.120;2023-05-07T08:57:29;6.70;;;3.90;;
3979;SDS011;2004;52.452;13.120;2023-05-07T09:05:20;4.03;;;3.50;;
3979;SDS011;2004;52.452;13.120;2023-05-07T09:13:11;11.07;;;2.83;;
3979;SDS011;2004;52.452;13.120;2023-05-07T09:21:04;5.53;;;3.00;;
3979;SDS011;2004;52.452;13.120;2023-05-07T09:28:54;3.27;;;2.97;;
3979;SDS011;2004;52.452;13.120;2023-05-07T09:36:45;3.17;;;2.90;;
3979;SDS011;2004;52.452;13.120;2023-05-07T09:44:37;2.60;;;2.40;;
3979;SDS011;2004;52.452;13.120;2023-05-07T09:52:28;2.63;;;2.30;;
3979;SDS011;2004;52.452;13.120;2023-05-07T10:00:23;3.97;;;2.20;;
3979;SDS011;2004;52.452;13.120;2023-05-07T10:08:15;4.10;;;2.03;;
3979;SDS011;2004;52.452;13.120;2023-05-07T10:16:06;11.33;;;2.30;;
3979;SDS011;2004;52.452;13.120;2023-05-07T10:23:58;6.70;;;2.50;;
3979;SDS011;2004;52.452;13.120;2023-05-07T10:40:02;2.40;;;2.07;;
3979;SDS011;2004;52.452;13.120;2023-05-07T10:48:09;4.60;;;2.53;;
3979;SDS011;2004;52.452;13.120;2023-05-07T11:04:14;2.80;;;1.70;;
3979;SDS011;2004;52.452;13.120;2023-05-07T11:12:05;1.60;;;1.50;;
3979;SDS011;2004;52.452;13.120;2023-05-07T11:19:56;1.83;;;1.73;;
3979;SDS011;2004;52.452;13.120;2023-05-07T11:27:46;3.40;;;1.40;;
3979;SDS011;2004;52.452;13.120;2023-05-07T11:35:37;2.35;;;1.55;;
3979;SDS011;2004;52.452;13.120;2023-05-07T11:43:28;1.40;;;1.30;;
3979;SDS011;2004;52.452;13.120;2023-05-07T11:51:19;1.50;;;1.40;;
3979;SDS011;2004;52.452;13.120;2023-05-07T11:59:11;6.67;;;1.40;;
3979;SDS011;2004;52.452;13.120;2023-05-07T12:07:12;1.77;;;1.67;;
3979;SDS011;2004;52.452;13.120;2023-05-07T12:15:04;6.30;;;1.70;;
3979;SDS011;2004;52.452;13.120;2023-05-07T12:22:55;5.50;;;1.50;;
3979;SDS011;2004;52.452;13.120;2023-05-07T12:30:47;5.20;;;1.60;;
3979;SDS011;2004;52.452;13.120;2023-05-07T12:38:38;3.80;;;1.60;;
3979;SDS011;2004;52.452;13.120;2023-05-07T12:46:30;1.63;;;1.53;;
3979;SDS011;2004;52.452;13.120;2023-05-07T12:54:28;5.10;;;1.53;;
3979;SDS011;2004;52.452;13.120;2023-05-07T13:02:22;2.00;;;1.80;;
3979;SDS011;2004;52.452;13.120;2023-05-07T13:10:23;1.77;;;1.67;;
3979;SDS011;2004;52.452;13.120;2023-05-07T13:18:14;3.63;;;1.90;;
3979;SDS011;2004;52.452;13.120;2023-05-07T13:26:05;2.07;;;1.60;;
3979;SDS011;2004;52.452;13.120;2023-05-07T13:33:55;1.63;;;1.53;;
3979;SDS011;2004;52.452;13.120;2023-05-07T13:41:46;3.00;;;1.93;;
3979;SDS011;2004;52.452;13.120;2023-05-07T13:49:36;1.30;;;1.20;;
3979;SDS011;2004;52.452;13.120;2023-05-07T13:57:27;2.50;;;1.70;;
3979;SDS011;2004;52.452;13.120;2023-05-07T14:05:17;2.40;;;1.80;;
3979;SDS011;2004;52.452;13.120;2023-05-07T14:13:08;1.40;;;1.30;;
3979;SDS011;2004;52.452;13.120;2023-05-07T14:20:59;3.83;;;1.73;;
3979;SDS011;2004;52.452;13.120;2023-05-07T14:28:49;1.73;;;1.57;;
3979;SDS011;2004;52.452;13.120;2023-05-07T14:36:40;1.50;;;1.40;;
3979;SDS011;2004;52.452;13.120;2023-05-07T14:44:31;1.73;;;1.63;;
3979;SDS011;2004;52.452;13.120;2023-05-07T14:52:21;2.17;;;1.57;;
3979;SDS011;2004;52.452;13.120;2023-05-07T15:00:12;7.40;;;1.70;;
3979;SDS011;2004;52.452;13.120;2023-05-07T15:08:03;4.60;;;1.67;;
3979;SDS011;2004;52.452;13.120;2023-05-07T15:15:53;2.53;;;1.30;;
3979;SDS011;2004;52.452;13.120;2023-05-07T15:23:44;2.53;;;1.30;;
3979;SDS011;2004;52.452;13.120;2023-05-07T15:31:35;1.70;;;1.60;;
3979;SDS011;2004;52.452;13.120;2023-05-07T15:39:27;1.77;;;1.67;;
3979;SDS011;2004;52.452;13.120;2023-05-07T15:47:17;1.63;;;1.53;;
3979;SDS011;2004;52.452;13.120;2023-05-07T15:55:08;1.40;;;1.30;;
3979;SDS011;2004;52.452;13.120;2023-05-07T16:02:59;2.20;;;1.37;;
3979;SDS011;2004;52.452;13.120;2023-05-07T16:10:50;2.43;;;1.40;;
3979;SDS011;2004;52.452;13.120;2023-05-07T16:18:41;2.03;;;1.80;;
3979;SDS011;2004;52.452;13.120;2023-05-07T16:26:31;1.30;;;1.30;;
3979;SDS011;2004;52.452;13.120;2023-05-07T16:34:22;4.10;;;1.70;;
3979;SDS011;2004;52.452;13.120;2023-05-07T16:42:12;2.00;;;1.80;;
3979;SDS011;2004;52.452;13.120;2023-05-07T16:50:03;1.47;;;1.37;;
3979;SDS011;2004;52.452;13.120;2023-05-07T16:57:54;2.13;;;1.93;;
3979;SDS011;2004;52.452;13.120;2023-05-07T17:05:45;2.10;;;1.70;;
3979;SDS011;2004;52.452;13.120;2023-05-07T17:13:35;2.77;;;1.90;;
3979;SDS011;2004;52.452;13.120;2023-05-07T17:21:26;1.77;;;1.67;;
3979;SDS011;2004;52.452;13.120;2023-05-07T17:29:18;5.20;;;1.43;;
3979;SDS011;2004;52.452;13.120;2023-05-07T17:37:09;1.53;;;1.43;;
3979;SDS011;2004;52.452;13.120;2023-05-07T17:45:00;1.40;;;1.30;;
3979;SDS011;2004;52.452;13.120;2023-05-07T17:52:51;3.47;;;1.90;;
3979;SDS011;2004;52.452;13.120;2023-05-07T18:00:42;1.30;;;1.20;;
3979;SDS011;2004;52.452;13.120;2023-05-07T18:08:34;2.30;;;1.57;;
3979;SDS011;2004;52.452;13.120;2023-05-07T18:16:25;1.87;;;1.43;;
3979;SDS011;2004;52.452;13.120;2023-05-07T18:24:15;1.50;;;1.40;;
3979;SDS011;2004;52.452;13.120;2023-05-07T18:32:06;4.20;;;1.53;;
3979;SDS011;2004;52.452;13.120;2023-05-07T18:39:57;2.27;;;1.70;;
3979;SDS011;2004;52.452;13.120;2023-05-07T18:47:52;3.33;;;2.00;;
3979;SDS011;2004;52.452;13.120;2023-05-07T18:55:42;2.00;;;1.83;;
3979;SDS011;2004;52.452;13.120;2023-05-07T19:03:39;4.30;;;1.33;;
3979;SDS011;2004;52.452;13.120;2023-05-07T19:11:29;1.80;;;1.70;;
3979;SDS011;2004;52.452;13.120;2023-05-07T19:19:20;1.90;;;1.77;;
3979;SDS011;2004;52.452;13.120;2023-05-07T19:27:12;1.90;;;1.80;;
3979;SDS011;2004;52.452;13.120;2023-05-07T19:35:03;1.93;;;1.80;;
3979;SDS011;2004;52.452;13.120;2023-05-07T19:42:54;2.10;;;2.00;;
3979;SDS011;2004;52.452;13.120;2023-05-07T19:50:46;4.87;;;1.90;;
3979;SDS011;2004;52.452;13.120;2023-05-07T19:58:38;10.13;;;1.67;;
3979;SDS011;2004;52.452;13.120;2023-05-07T20:06:29;2.27;;;2.00;;
3979;SDS011;2004;52.452;13.120;2023-05-07T20:14:21;1.90;;;1.80;;
3979;SDS011;2004;52.452;13.120;2023-05-07T20:22:12;4.50;;;2.37;;
3979;SDS011;2004;52.452;13.120;2023-05-07T20:30:02;2.53;;;2.33;;
3979;SDS011;2004;52.452;13.120;2023-05-07T20:37:54;7.47;;;2.80;;
3979;SDS011;2004;52.452;13.120;2023-05-07T20:45:44;3.03;;;1.93;;
3979;SDS011;2004;52.452;13.120;2023-05-07T20:53:35;3.00;;;2.37;;
3979;SDS011;2004;52.452;13.120;2023-05-07T21:01:27;3.10;;;2.80;;
3979;SDS011;2004;52.452;13.120;2023-05-07T21:09:18;4.30;;;2.57;;
3979;SDS011;2004;52.452;13.120;2023-05-07T21:17:09;3.20;;;2.60;;
3979;SDS011;2004;52.452;13.120;2023-05-07T21:24:59;3.77;;;2.63;;
3979;SDS011;2004;52.452;13.120;2023-05-07T21:32:50;3.10;;;2.87;;
3979;SDS011;2004;52.452;13.120;2023-05-07T21:40:41;4.40;;;3.33;;
3979;SDS011;2004;52.452;13.120;2023-05-07T21:48:32;3.00;;;2.80;;
3979;SDS011;2004;52.452;13.120;2023-05-07T21:56:23;3.63;;;3.30;;
3979;SDS011;2004;52.452;13.120;2023-05-07T22:04:13;7.10;;;3.17;;
3979;SDS011;2004;52.452;13.120;2023-05-07T22:12:04;3.40;;;3.10;;
3979;SDS011;2004;52.452;13.120;2023-05-07T22:19:55;4.97;;;3.03;;
3979;SDS011;2004;52.452;13.120;2023-05-07T22:27:45;3.70;;;3.40;;
3979;SDS011;2004;52.452;13.120;2023-05-07T22:35:36;3.90;;;3.33;;
3979;SDS011;2004;52.452;13.120;2023-05-07T22:43:27;3.13;;;2.90;;
3979;SDS011;2004;52.452;13.120;2023-05-07T22:51:17;3.50;;;3.20;;
3979;SDS011;2004;52.452;13.120;2023-05-07T22:59:08;3.77;;;3.47;;
3979;SDS011;2004;52.452;13.120;2023-05-07T23:06:58;10.23;;;3.50;;
3979;SDS011;2004;52.452;13.120;2023-05-07T23:14:49;4.97;;;4.00;;
3979;SDS011;2004;52.452;13.120;2023-05-07T23:22:39;5.80;;;4.17;;
3979;SDS011;2004;52.452;13.120;2023-05-07T23:30:30;5.03;;;3.60;;
3979;SDS011;2004;52.452;13.120;2023-05-07T23:38:21;4.57;;;4.17;;
3979;SDS011;2004;52.452;13.120;2023-05-07T23:46:11;4.80;;;4.17;;
3979;SDS011;2004;52.452;13.120;2023-05-07T23:54:02;3.33;;;3.00;;
